sensor_id;sensor_type;location;lat;lon;timestamp;pressure;altitude;pressure_sealevel;temperature;humidity
63731;BME280;49747;51.334;6.830;2022-12-18T00:03:45;102314.41;;;5.61;45.69
63731;BME280;49747;51.334;6.830;2022-12-18T00:06:13;102308.13;;;5.66;46.10
63731;BME280;49747;51.334;6.830;2022-12-18T00:08:41;102319.41;;;5.70;46.77
63731;BME280;49747;51.334;6.830;2022-12-18T00:11:11;102324.81;;;5.67;46.09
63731;BME280;49747;51.334;6.830;2022-12-18T00:13:38;102316.13;;;5.62;46.19
63731;BME280;49747;51.334;6.830;2022-12-18T00:16:08;102324.81;;;5.65;46.10
63731;BME280;49747;51.334;6.830;2022-12-18T00:18:36;102322.25;;;5.64;45.96
63731;BME280;49747;51.334;6.830;2022-12-18T00:21:05;102312.59;;;5.63;46.44
63731;BME280;49747;51.334;6.830;2022-12-18T00:23:33;102315.25;;;5.61;45.71
63731;BME280;49747;51.334;6.830;2022-12-18T00:26:04;102311.75;;;5.61;45.90
63731;BME280;49747;51.334;6.830;2022-12-18T00:28:31;102313.66;;;5.56;45.70
63731;BME280;49747;51.334;6.830;2022-12-18T00:31:06;102312.81;;;5.54;45.85
63731;BME280;49747;51.334;6.830;2022-12-18T00:33:34;102305.81;;;5.53;45.76
63731;BME280;49747;51.334;6.830;2022-12-18T00:36:06;102321.66;;;5.53;45.90
63731;BME280;49747;51.334;6.830;2022-12-18T00:38:34;102307.69;;;5.49;45.74
63731;BME280;49747;51.334;6.830;2022-12-18T00:41:00;102295.69;;;5.37;46.28
63731;BME280;49747;51.334;6.830;2022-12-18T00:43:27;102289.50;;;5.38;46.36
63731;BME280;49747;51.334;6.830;2022-12-18T00:45:54;102293.78;;;5.42;46.19
63731;BME280;49747;51.334;6.830;2022-12-18T00:48:21;102285.84;;;5.44;46.54
63731;BME280;49747;51.334;6.830;2022-12-18T00:50:49;102294.63;;;5.44;46.97
63731;BME280;49747;51.334;6.830;2022-12-18T00:53:16;102298.09;;;5.47;47.17
63731;BME280;49747;51.334;6.830;2022-12-18T00:55:43;102308.72;;;5.42;46.25
63731;BME280;49747;51.334;6.830;2022-12-18T00:58:13;102293.78;;;5.42;46.82
63731;BME280;49747;51.334;6.830;2022-12-18T01:00:40;102305.16;;;5.44;46.08
63731;BME280;49747;51.334;6.830;2022-12-18T01:03:13;102304.97;;;5.52;46.65
63731;BME280;49747;51.334;6.830;2022-12-18T01:05:41;102307.66;;;5.51;46.24
63731;BME280;49747;51.334;6.830;2022-12-18T01:08:09;102288.00;;;5.28;45.90
63731;BME280;49747;51.334;6.830;2022-12-18T01:10:35;102313.19;;;5.40;45.93
63731;BME280;49747;51.334;6.830;2022-12-18T01:13:02;102301.94;;;5.33;46.20
63731;BME280;49747;51.334;6.830;2022-12-18T01:15:29;102298.47;;;5.31;46.28
63731;BME280;49747;51.334;6.830;2022-12-18T01:17:55;102302.06;;;5.29;46.08
63731;BME280;49747;51.334;6.830;2022-12-18T01:20:22;102309.69;;;5.39;46.06
63731;BME280;49747;51.334;6.830;2022-12-18T01:22:48;102299.28;;;5.33;46.47
63731;BME280;49747;51.334;6.830;2022-12-18T01:25:15;102296.63;;;5.35;46.05
63731;BME280;49747;51.334;6.830;2022-12-18T01:27:42;102290.47;;;5.34;45.95
63731;BME280;49747;51.334;6.830;2022-12-18T01:30:09;102284.31;;;5.35;46.24
63731;BME280;49747;51.334;6.830;2022-12-18T01:32:36;102293.78;;;5.42;46.72
63731;BME280;49747;51.334;6.830;2022-12-18T01:35:03;102291.94;;;5.46;46.54
63731;BME280;49747;51.334;6.830;2022-12-18T01:37:30;102284.06;;;5.44;46.53
63731;BME280;49747;51.334;6.830;2022-12-18T01:39:56;102289.28;;;5.46;46.59
63731;BME280;49747;51.334;6.830;2022-12-18T01:42:23;102289.09;;;5.54;46.50
63731;BME280;49747;51.334;6.830;2022-12-18T01:44:59;102284.66;;;5.56;46.35
63731;BME280;49747;51.334;6.830;2022-12-18T01:50:13;102283.56;;;5.64;46.11
63731;BME280;49747;51.334;6.830;2022-12-18T01:52:42;102283.56;;;5.64;46.21
63731;BME280;49747;51.334;6.830;2022-12-18T01:55:10;102295.03;;;5.62;45.86
63731;BME280;49747;51.334;6.830;2022-12-18T01:57:37;102295.94;;;5.61;45.82
63731;BME280;49747;51.334;6.830;2022-12-18T02:00:09;102296.88;;;5.58;46.09
63731;BME280;49747;51.334;6.830;2022-12-18T02:02:41;102302.78;;;5.68;45.95
63731;BME280;49747;51.334;6.830;2022-12-18T02:05:13;102294.16;;;5.63;46.13
63731;BME280;49747;51.334;6.830;2022-12-18T02:07:43;102301.03;;;5.68;46.22
63731;BME280;49747;51.334;6.830;2022-12-18T02:10:27;102317.63;;;5.72;45.96
63731;BME280;49747;51.334;6.830;2022-12-18T02:15:36;102305.97;;;5.81;47.36
63731;BME280;49747;51.334;6.830;2022-12-18T02:18:13;102290.34;;;5.73;46.23
63731;BME280;49747;51.334;6.830;2022-12-18T02:20:49;102302.50;;;5.79;46.15
63731;BME280;49747;51.334;6.830;2022-12-18T02:26:22;102295.63;;;5.73;46.72
63731;BME280;49747;51.334;6.830;2022-12-18T02:28:58;102290.34;;;5.73;46.17
63731;BME280;49747;51.334;6.830;2022-12-18T02:31:31;102286.91;;;5.71;45.94
63731;BME280;49747;51.334;6.830;2022-12-18T02:34:04;102281.63;;;5.71;45.99
63731;BME280;49747;51.334;6.830;2022-12-18T02:36:38;102280.78;;;5.69;45.99
63731;BME280;49747;51.334;6.830;2022-12-18T02:39:09;102266.00;;;5.63;45.88
63731;BME280;49747;51.334;6.830;2022-12-18T02:41:42;102274.56;;;5.72;46.21
63731;BME280;49747;51.334;6.830;2022-12-18T02:44:12;102277.09;;;5.76;46.07
63731;BME280;49747;51.334;6.830;2022-12-18T02:46:41;102269.59;;;5.61;46.59
63731;BME280;49747;51.334;6.830;2022-12-18T02:49:25;102294.88;;;5.68;47.08
63731;BME280;49747;51.334;6.830;2022-12-18T02:52:05;102293.19;;;5.65;46.88
63731;BME280;49747;51.334;6.830;2022-12-18T02:54:47;102291.50;;;5.63;46.55
63731;BME280;49747;51.334;6.830;2022-12-18T02:57:29;102281.84;;;5.62;46.56
63731;BME280;49747;51.334;6.830;2022-12-18T03:00:05;102288.63;;;5.72;46.39
63731;BME280;49747;51.334;6.830;2022-12-18T03:02:41;102289.69;;;5.65;46.58
63731;BME280;49747;51.334;6.830;2022-12-18T03:05:33;102291.34;;;5.69;46.55
63731;BME280;49747;51.334;6.830;2022-12-18T03:08:06;102291.59;;;5.60;46.67
63731;BME280;49747;51.334;6.830;2022-12-18T03:10:45;102285.31;;;5.64;46.82
63731;BME280;49747;51.334;6.830;2022-12-18T03:13:20;102272.16;;;5.64;47.12
63731;BME280;49747;51.334;6.830;2022-12-18T03:15:53;102275.78;;;5.58;47.33
63731;BME280;49747;51.334;6.830;2022-12-18T03:18:30;102276.47;;;5.66;46.96
63731;BME280;49747;51.334;6.830;2022-12-18T03:21:00;102274.59;;;5.70;47.27
63731;BME280;49747;51.334;6.830;2022-12-18T03:23:33;102273.66;;;5.73;46.84
63731;BME280;49747;51.334;6.830;2022-12-18T03:26:06;102272.84;;;5.71;46.94
63731;BME280;49747;51.334;6.830;2022-12-18T03:28:40;102268.44;;;5.71;46.43
63731;BME280;49747;51.334;6.830;2022-12-18T03:31:10;102267.53;;;5.72;46.76
63731;BME280;49747;51.334;6.830;2022-12-18T03:33:42;102259.88;;;5.63;46.87
63731;BME280;49747;51.334;6.830;2022-12-18T03:36:13;102262.59;;;5.60;46.63
63731;BME280;49747;51.334;6.830;2022-12-18T03:38:40;102267.03;;;5.58;46.40
63731;BME280;49747;51.334;6.830;2022-12-18T03:41:15;102269.44;;;5.67;46.63
63731;BME280;49747;51.334;6.830;2022-12-18T03:46:42;102271.22;;;5.66;46.94
63731;BME280;49747;51.334;6.830;2022-12-18T03:49:21;102266.81;;;5.65;46.45
63731;BME280;49747;51.334;6.830;2022-12-18T03:51:57;102261.53;;;5.67;46.84
63731;BME280;49747;51.334;6.830;2022-12-18T03:54:26;102264.84;;;5.74;47.07
63731;BME280;49747;51.334;6.830;2022-12-18T03:57:16;102266.59;;;5.73;46.54
63731;BME280;49747;51.334;6.830;2022-12-18T03:59:50;102249.13;;;5.71;46.82
63731;BME280;49747;51.334;6.830;2022-12-18T04:02:22;102241.22;;;5.71;47.37
63731;BME280;49747;51.334;6.830;2022-12-18T04:04:52;102261.06;;;5.82;47.07
63731;BME280;49747;51.334;6.830;2022-12-18T04:07:21;102241.94;;;5.76;46.85
63731;BME280;49747;51.334;6.830;2022-12-18T04:09:50;102241.88;;;5.79;47.69
63731;BME280;49747;51.334;6.830;2022-12-18T04:12:21;102253.06;;;5.87;47.68
63731;BME280;49747;51.334;6.830;2022-12-18T04:14:50;102248.56;;;5.90;47.84
63731;BME280;49747;51.334;6.830;2022-12-18T04:17:17;102244.16;;;5.91;47.97
63731;BME280;49747;51.334;6.830;2022-12-18T04:19:43;102237.13;;;5.90;47.90
63731;BME280;49747;51.334;6.830;2022-12-18T04:22:10;102248.34;;;5.98;47.97
63731;BME280;49747;51.334;6.830;2022-12-18T04:24:42;102244.00;;;5.97;47.56
63731;BME280;49747;51.334;6.830;2022-12-18T04:27:16;102242.06;;;6.02;47.55
63731;BME280;49747;51.334;6.830;2022-12-18T04:29:47;102248.13;;;6.06;47.46
63731;BME280;49747;51.334;6.830;2022-12-18T04:32:14;102240.28;;;6.04;47.07
63731;BME280;49747;51.334;6.830;2022-12-18T04:34:42;102242.84;;;6.06;47.05
63731;BME280;49747;51.334;6.830;2022-12-18T04:37:09;102240.97;;;6.11;47.34
63731;BME280;49747;51.334;6.830;2022-12-18T04:39:35;102233.00;;;6.12;47.45
63731;BME280;49747;51.334;6.830;2022-12-18T04:42:08;102227.72;;;6.12;46.99
63731;BME280;49747;51.334;6.830;2022-12-18T04:44:34;102228.44;;;6.17;47.66
63731;BME280;49747;51.334;6.830;2022-12-18T04:47:01;102232.81;;;6.19;47.49
63731;BME280;49747;51.334;6.830;2022-12-18T04:49:27;102225.72;;;6.21;47.45
63731;BME280;49747;51.334;6.830;2022-12-18T04:51:54;102220.50;;;6.19;47.92
63731;BME280;49747;51.334;6.830;2022-12-18T04:54:20;102223.00;;;6.22;46.89
63731;BME280;49747;51.334;6.830;2022-12-18T04:56:47;102229.06;;;6.26;47.45
63731;BME280;49747;51.334;6.830;2022-12-18T04:59:13;102229.75;;;6.32;47.18
63731;BME280;49747;51.334;6.830;2022-12-18T05:01:40;102220.06;;;6.33;47.63
63731;BME280;49747;51.334;6.830;2022-12-18T05:04:07;102221.78;;;6.34;47.19
63731;BME280;49747;51.334;6.830;2022-12-18T05:06:33;102205.38;;;6.24;46.92
63731;BME280;49747;51.334;6.830;2022-12-18T05:09:00;102212.22;;;6.30;46.89
63731;BME280;49747;51.334;6.830;2022-12-18T05:11:27;102216.47;;;6.35;47.07
63731;BME280;49747;51.334;6.830;2022-12-18T05:13:53;102213.00;;;6.33;46.97
63731;BME280;49747;51.334;6.830;2022-12-18T05:16:21;102215.59;;;6.35;47.25
63731;BME280;49747;51.334;6.830;2022-12-18T05:18:48;102208.56;;;6.35;46.98
63731;BME280;49747;51.334;6.830;2022-12-18T05:21:14;102218.88;;;6.43;46.88
63731;BME280;49747;51.334;6.830;2022-12-18T05:23:41;102211.91;;;6.40;47.25
63731;BME280;49747;51.334;6.830;2022-12-18T05:26:09;102219.69;;;6.45;47.01
63731;BME280;49747;51.334;6.830;2022-12-18T05:28:40;102212.63;;;6.46;46.58
63731;BME280;49747;51.334;6.830;2022-12-18T05:31:06;102209.19;;;6.42;46.82
63731;BME280;49747;51.334;6.830;2022-12-18T05:33:34;102211.81;;;6.44;46.79
63731;BME280;49747;51.334;6.830;2022-12-18T05:36:02;102218.72;;;6.48;46.97
63731;BME280;49747;51.334;6.830;2022-12-18T05:38:31;102222.31;;;6.45;46.97
63731;BME280;49747;51.334;6.830;2022-12-18T05:40:58;102224.00;;;6.48;47.24
63731;BME280;49747;51.334;6.830;2022-12-18T05:43:26;102224.81;;;6.50;46.56
63731;BME280;49747;51.334;6.830;2022-12-18T05:45:53;102225.78;;;6.47;46.75
63731;BME280;49747;51.334;6.830;2022-12-18T05:48:21;102237.06;;;6.52;46.82
63731;BME280;49747;51.334;6.830;2022-12-18T05:50:48;102240.53;;;6.54;46.72
63731;BME280;49747;51.334;6.830;2022-12-18T05:53:18;102252.84;;;6.54;46.39
63731;BME280;49747;51.334;6.830;2022-12-18T05:55:46;102250.19;;;6.55;46.15
63731;BME280;49747;51.334;6.830;2022-12-18T05:58:13;102249.25;;;6.56;46.32
63731;BME280;49747;51.334;6.830;2022-12-18T06:00:42;102251.94;;;6.55;45.73
63731;BME280;49747;51.334;6.830;2022-12-18T06:03:09;102251.97;;;6.53;46.04
63731;BME280;49747;51.334;6.830;2022-12-18T06:05:41;102258.91;;;6.57;45.32
63731;BME280;49747;51.334;6.830;2022-12-18T06:08:09;102264.19;;;6.57;45.36
63731;BME280;49747;51.334;6.830;2022-12-18T06:10:36;102259.91;;;6.53;45.57
63731;BME280;49747;51.334;6.830;2022-12-18T06:13:03;102280.88;;;6.58;45.92
63731;BME280;49747;51.334;6.830;2022-12-18T06:15:30;102277.38;;;6.57;45.19
63731;BME280;49747;51.334;6.830;2022-12-18T06:17:56;102285.31;;;6.57;45.59
63731;BME280;49747;51.334;6.830;2022-12-18T06:20:23;102288.78;;;6.59;45.12
63731;BME280;49747;51.334;6.830;2022-12-18T06:22:55;102288.84;;;6.56;44.97
63731;BME280;49747;51.334;6.830;2022-12-18T06:25:22;102255.09;;;6.38;45.50
63731;BME280;49747;51.334;6.830;2022-12-18T06:27:48;102280.94;;;6.56;45.12
63731;BME280;49747;51.334;6.830;2022-12-18T06:30:15;102271.44;;;6.51;45.06
63731;BME280;49747;51.334;6.830;2022-12-18T06:32:42;102270.47;;;6.53;45.18
63731;BME280;49747;51.334;6.830;2022-12-18T06:35:09;102262.63;;;6.50;46.30
63731;BME280;49747;51.334;6.830;2022-12-18T06:37:35;102257.31;;;6.52;45.64
63731;BME280;49747;51.334;6.830;2022-12-18T06:40:02;102251.09;;;6.54;44.97
63731;BME280;49747;51.334;6.830;2022-12-18T06:42:29;102256.41;;;6.53;45.24
63731;BME280;49747;51.334;6.830;2022-12-18T06:44:55;102244.16;;;6.50;45.36
63731;BME280;49747;51.334;6.830;2022-12-18T06:47:22;102240.63;;;6.51;44.82
63731;BME280;49747;51.334;6.830;2022-12-18T06:49:48;102241.41;;;6.55;45.08
63731;BME280;49747;51.334;6.830;2022-12-18T06:52:15;102229.31;;;6.46;45.83
63731;BME280;49747;51.334;6.830;2022-12-18T06:54:41;102214.53;;;6.40;45.78
63731;BME280;49747;51.334;6.830;2022-12-18T06:57:08;102231.69;;;6.55;45.97
63731;BME280;49747;51.334;6.830;2022-12-18T06:59:34;102198.78;;;6.37;45.28
63731;BME280;49747;51.334;6.830;2022-12-18T07:02:01;102216.78;;;6.53;44.79
63731;BME280;49747;51.334;6.830;2022-12-18T07:04:31;102217.66;;;6.53;45.04
63731;BME280;49747;51.334;6.830;2022-12-18T07:06:57;102218.50;;;6.54;44.99
63731;BME280;49747;51.334;6.830;2022-12-18T07:09:24;102216.00;;;6.51;44.60
63731;BME280;49747;51.334;6.830;2022-12-18T07:11:52;102222.06;;;6.53;44.83
63731;BME280;49747;51.334;6.830;2022-12-18T07:14:18;102224.72;;;6.53;44.73
63731;BME280;49747;51.334;6.830;2022-12-18T07:16:46;102225.56;;;6.53;44.45
63731;BME280;49747;51.334;6.830;2022-12-18T07:19:12;102218.72;;;6.48;45.50
63731;BME280;49747;51.334;6.830;2022-12-18T07:21:39;102221.53;;;6.41;44.73
63731;BME280;49747;51.334;6.830;2022-12-18T07:24:06;102226.66;;;6.48;44.58
63731;BME280;49747;51.334;6.830;2022-12-18T07:26:33;102229.13;;;6.52;44.18
63731;BME280;49747;51.334;6.830;2022-12-18T07:28:59;102227.44;;;6.50;44.63
63731;BME280;49747;51.334;6.830;2022-12-18T07:31:26;102222.06;;;6.53;44.50
63731;BME280;49747;51.334;6.830;2022-12-18T07:33:53;102216.84;;;6.51;45.11
63731;BME280;49747;51.334;6.830;2022-12-18T07:36:20;102206.47;;;6.45;44.07
63731;BME280;49747;51.334;6.830;2022-12-18T07:38:47;102203.94;;;6.42;44.27
63731;BME280;49747;51.334;6.830;2022-12-18T07:41:14;102200.56;;;6.37;44.29
63731;BME280;49747;51.334;6.830;2022-12-18T07:43:41;102205.81;;;6.38;43.81
63731;BME280;49747;51.334;6.830;2022-12-18T07:46:09;102201.56;;;6.33;43.69
63731;BME280;49747;51.334;6.830;2022-12-18T07:48:39;102210.34;;;6.33;44.41
63731;BME280;49747;51.334;6.830;2022-12-18T07:51:07;102211.34;;;6.31;43.79
63731;BME280;49747;51.334;6.830;2022-12-18T07:53:35;102215.63;;;6.33;43.90
63731;BME280;49747;51.334;6.830;2022-12-18T07:56:06;102209.56;;;6.31;44.42
63731;BME280;49747;51.334;6.830;2022-12-18T07:58:53;102208.88;;;6.25;43.69
63731;BME280;49747;51.334;6.830;2022-12-18T08:01:20;102202.09;;;6.16;43.93
63731;BME280;49747;51.334;6.830;2022-12-18T08:03:47;102215.84;;;6.27;43.68
63731;BME280;49747;51.334;6.830;2022-12-18T08:06:15;102207.88;;;6.29;43.68
63731;BME280;49747;51.334;6.830;2022-12-18T08:08:41;102194.19;;;6.16;43.32
63731;BME280;49747;51.334;6.830;2022-12-18T08:11:08;102180.13;;;6.15;43.65
63731;BME280;49747;51.334;6.830;2022-12-18T08:13:35;102184.50;;;6.16;43.31
63731;BME280;49747;51.334;6.830;2022-12-18T08:16:05;102181.06;;;6.14;43.34
63731;BME280;49747;51.334;6.830;2022-12-18T08:18:33;102180.38;;;6.06;43.48
63731;BME280;49747;51.334;6.830;2022-12-18T08:21:09;102180.31;;;6.09;43.54
63731;BME280;49747;51.334;6.830;2022-12-18T08:23:37;102170.91;;;6.01;43.08
63731;BME280;49747;51.334;6.830;2022-12-18T08:26:08;102157.06;;;5.92;43.68
63731;BME280;49747;51.334;6.830;2022-12-18T08:28:35;102161.97;;;6.05;43.56
63731;BME280;49747;51.334;6.830;2022-12-18T08:31:02;102157.94;;;5.93;43.87
63731;BME280;49747;51.334;6.830;2022-12-18T08:33:28;102147.22;;;5.99;44.38
63731;BME280;49747;51.334;6.830;2022-12-18T08:35:55;102150.63;;;6.03;43.94
63731;BME280;49747;51.334;6.830;2022-12-18T08:38:21;102142.47;;;6.10;44.32
63731;BME280;49747;51.334;6.830;2022-12-18T08:40:53;102151.03;;;6.19;44.63
63731;BME280;49747;51.334;6.830;2022-12-18T08:43:20;102140.47;;;6.19;43.94
63731;BME280;49747;51.334;6.830;2022-12-18T08:46:07;102161.44;;;6.23;43.83
63731;BME280;49747;51.334;6.830;2022-12-18T08:48:34;102166.56;;;6.28;44.64
63731;BME280;49747;51.334;6.830;2022-12-18T08:51:00;102168.22;;;6.30;43.44
63731;BME280;49747;51.334;6.830;2022-12-18T08:53:27;102168.03;;;6.36;44.38
63731;BME280;49747;51.334;6.830;2022-12-18T08:56:01;102170.06;;;6.28;43.64
63731;BME280;49747;51.334;6.830;2022-12-18T08:58:27;102155.94;;;6.29;42.98
63731;BME280;49747;51.334;6.830;2022-12-18T09:00:59;102151.41;;;6.34;43.21
63731;BME280;49747;51.334;6.830;2022-12-18T09:03:26;102162.59;;;6.41;43.17
63731;BME280;49747;51.334;6.830;2022-12-18T09:05:53;102153.03;;;6.38;42.83
63731;BME280;49747;51.334;6.830;2022-12-18T09:08:19;102135.16;;;6.47;43.07
63731;BME280;49747;51.334;6.830;2022-12-18T09:10:48;102139.47;;;6.49;43.03
63731;BME280;49747;51.334;6.830;2022-12-18T09:13:15;102132.31;;;6.53;42.69
63731;BME280;49747;51.334;6.830;2022-12-18T09:18:09;102132.97;;;6.59;42.61
63731;BME280;49747;51.334;6.830;2022-12-18T09:20:36;102134.25;;;6.48;42.60
63731;BME280;49747;51.334;6.830;2022-12-18T09:23:03;102134.63;;;6.62;42.95
63731;BME280;49747;51.334;6.830;2022-12-18T09:25:31;102138.16;;;6.62;42.11
63731;BME280;49747;51.334;6.830;2022-12-18T09:27:59;102126.72;;;6.62;42.62
63731;BME280;49747;51.334;6.830;2022-12-18T09:30:27;102119.38;;;6.72;43.10
63731;BME280;49747;51.334;6.830;2022-12-18T09:32:54;102142.38;;;6.93;42.96
63731;BME280;49747;51.334;6.830;2022-12-18T09:35:20;102128.75;;;7.05;42.24
63731;BME280;49747;51.334;6.830;2022-12-18T09:37:47;102132.47;;;7.25;42.39
63731;BME280;49747;51.334;6.830;2022-12-18T09:40:16;102132.56;;;7.47;42.66
63731;BME280;49747;51.334;6.830;2022-12-18T09:42:46;102120.44;;;7.64;42.05
63731;BME280;49747;51.334;6.830;2022-12-18T09:45:15;102124.00;;;7.87;40.84
63731;BME280;49747;51.334;6.830;2022-12-18T09:47:43;102120.78;;;8.01;40.35
63731;BME280;49747;51.334;6.830;2022-12-18T09:52:51;102108.84;;;8.12;40.10
63731;BME280;49747;51.334;6.830;2022-12-18T09:55:28;102101.59;;;8.18;39.97
63731;BME280;49747;51.334;6.830;2022-12-18T10:00:57;102102.41;;;8.42;60.86
63731;BME280;49747;51.334;6.830;2022-12-18T10:03:24;102104.06;;;6.28;45.57
63731;BME280;49747;51.334;6.830;2022-12-18T10:08:44;102104.09;;;5.71;44.08
63731;BME280;49747;51.334;6.830;2022-12-18T10:22:22;102118.00;;;4.81;45.13
63731;BME280;49747;51.334;6.830;2022-12-18T10:25:13;102091.69;;;4.81;46.37
63731;BME280;49747;51.334;6.830;2022-12-18T10:27:42;102086.22;;;4.54;47.25
63731;BME280;49747;51.334;6.830;2022-12-18T10:30:14;102079.06;;;4.25;46.76
63731;BME280;49747;51.334;6.830;2022-12-18T10:32:41;102070.69;;;4.45;46.56
63731;BME280;49747;51.334;6.830;2022-12-18T10:35:19;102077.59;;;4.49;47.55
63731;BME280;49747;51.334;6.830;2022-12-18T10:38:21;102076.81;;;4.80;47.17
63731;BME280;49747;51.334;6.830;2022-12-18T10:43:36;102079.75;;;4.67;46.82
63731;BME280;49747;51.334;6.830;2022-12-18T10:51:35;102069.19;;;4.69;47.30
63731;BME280;49747;51.334;6.830;2022-12-18T10:54:23;102043.06;;;3.91;48.82
63731;BME280;49747;51.334;6.830;2022-12-18T10:57:32;102051.22;;;4.51;47.98
63731;BME280;49747;51.334;6.830;2022-12-18T11:00:18;102045.81;;;4.89;47.28
63731;BME280;49747;51.334;6.830;2022-12-18T11:02:47;102045.06;;;4.84;47.00
63731;BME280;49747;51.334;6.830;2022-12-18T11:05:34;102030.25;;;4.13;48.42
63731;BME280;49747;51.334;6.830;2022-12-18T11:08:03;102024.28;;;4.41;48.03
63731;BME280;49747;51.334;6.830;2022-12-18T11:10:39;102035.19;;;4.92;49.55
63731;BME280;49747;51.334;6.830;2022-12-18T11:13:44;102035.91;;;5.29;47.88
63731;BME280;49747;51.334;6.830;2022-12-18T11:16:03;102021.81;;;5.59;46.87
63731;BME280;49747;51.334;6.830;2022-12-18T11:18:32;102033.16;;;5.89;46.20
63731;BME280;49747;51.334;6.830;2022-12-18T11:21:09;102012.47;;;6.05;46.08
63731;BME280;49747;51.334;6.830;2022-12-18T11:23:50;102032.63;;;6.34;45.19
63731;BME280;49747;51.334;6.830;2022-12-18T11:26:18;102033.69;;;6.54;44.71
63731;BME280;49747;51.334;6.830;2022-12-18T11:28:52;102028.00;;;6.66;44.46
63731;BME280;49747;51.334;6.830;2022-12-18T11:31:33;102002.91;;;6.78;44.31
63731;BME280;49747;51.334;6.830;2022-12-18T11:34:21;101987.50;;;6.90;43.68
63731;BME280;49747;51.334;6.830;2022-12-18T11:36:58;101991.31;;;7.07;43.90
63731;BME280;49747;51.334;6.830;2022-12-18T11:39:39;101985.03;;;7.09;43.14
63731;BME280;49747;51.334;6.830;2022-12-18T11:44:47;101982.00;;;7.20;43.06
63731;BME280;49747;51.334;6.830;2022-12-18T11:47:29;101990.47;;;7.28;43.63
63731;BME280;49747;51.334;6.830;2022-12-18T11:50:02;101975.56;;;7.27;43.20
63731;BME280;49747;51.334;6.830;2022-12-18T11:52:36;101980.38;;;7.39;43.57
63731;BME280;49747;51.334;6.830;2022-12-18T11:55:11;101974.97;;;7.43;42.97
63731;BME280;49747;51.334;6.830;2022-12-18T12:00:16;101978.47;;;7.43;43.05
63731;BME280;49747;51.334;6.830;2022-12-18T12:03:08;101969.03;;;7.36;42.67
63731;BME280;49747;51.334;6.830;2022-12-18T12:06:09;101959.72;;;7.26;42.35
63731;BME280;49747;51.334;6.830;2022-12-18T12:09:09;101962.16;;;7.32;43.09
63731;BME280;49747;51.334;6.830;2022-12-18T12:11:57;101982.94;;;7.41;42.83
63731;BME280;49747;51.334;6.830;2022-12-18T12:36:22;101930.72;;;7.02;42.71
63731;BME280;49747;51.334;6.830;2022-12-18T12:38:55;101954.91;;;7.13;42.93
63731;BME280;49747;51.334;6.830;2022-12-18T12:41:26;101940.56;;;6.97;42.80
63731;BME280;49747;51.334;6.830;2022-12-18T12:44:39;101934.38;;;6.98;43.10
63731;BME280;49747;51.334;6.830;2022-12-18T12:47:18;101932.72;;;6.96;43.36
63731;BME280;49747;51.334;6.830;2022-12-18T12:49:47;101919.50;;;6.96;45.93
63731;BME280;49747;51.334;6.830;2022-12-18T12:52:39;101942.13;;;7.03;43.48
63731;BME280;49747;51.334;6.830;2022-12-18T12:55:16;101929.81;;;7.02;43.52
63731;BME280;49747;51.334;6.830;2022-12-18T12:57:51;101930.09;;;6.94;43.30
63731;BME280;49747;51.334;6.830;2022-12-18T13:00:22;101939.25;;;6.85;43.20
63731;BME280;49747;51.334;6.830;2022-12-18T13:02:59;101952.53;;;6.84;43.43
63731;BME280;49747;51.334;6.830;2022-12-18T13:05:36;101937.63;;;6.81;43.69
63731;BME280;49747;51.334;6.830;2022-12-18T13:08:10;101915.00;;;6.74;43.43
63731;BME280;49747;51.334;6.830;2022-12-18T13:10:38;101936.41;;;6.91;43.76
63731;BME280;49747;51.334;6.830;2022-12-18T13:13:12;101937.06;;;6.97;43.74
63731;BME280;49747;51.334;6.830;2022-12-18T13:15:45;101929.44;;;6.89;43.67
63731;BME280;49747;51.334;6.830;2022-12-18T13:18:23;101910.84;;;6.92;43.40
63731;BME280;49747;51.334;6.830;2022-12-18T13:23:36;101902.72;;;6.97;44.28
63731;BME280;49747;51.334;6.830;2022-12-18T13:31:14;101889.59;;;6.72;43.38
63731;BME280;49747;51.334;6.830;2022-12-18T13:33:46;101883.56;;;6.68;43.50
63731;BME280;49747;51.334;6.830;2022-12-18T13:36:33;101874.53;;;6.74;43.28
63731;BME280;49747;51.334;6.830;2022-12-18T13:44:36;101867.19;;;6.82;43.30
63731;BME280;49747;51.334;6.830;2022-12-18T13:47:28;101850.03;;;6.70;43.12
63731;BME280;49747;51.334;6.830;2022-12-18T13:50:00;101843.13;;;6.66;43.12
63731;BME280;49747;51.334;6.830;2022-12-18T13:52:28;101844.34;;;6.57;43.18
63731;BME280;49747;51.334;6.830;2022-12-18T13:55:01;101837.25;;;6.59;43.31
63731;BME280;49747;51.334;6.830;2022-12-18T13:59:57;101838.97;;;6.60;43.37
63731;BME280;49747;51.334;6.830;2022-12-18T14:02:26;101829.25;;;6.61;43.50
63731;BME280;49747;51.334;6.830;2022-12-18T14:04:54;101829.44;;;6.56;43.03
63731;BME280;49747;51.334;6.830;2022-12-18T14:07:24;101832.19;;;6.53;43.01
63731;BME280;49747;51.334;6.830;2022-12-18T14:09:54;101838.31;;;6.54;43.23
63731;BME280;49747;51.334;6.830;2022-12-18T14:12:46;101865.19;;;6.41;43.36
63731;BME280;49747;51.334;6.830;2022-12-18T14:15:35;101839.25;;;6.53;43.17
63731;BME280;49747;51.334;6.830;2022-12-18T14:20:51;101843.50;;;6.57;43.25
63731;BME280;49747;51.334;6.830;2022-12-18T14:23:35;101831.59;;;6.47;43.25
63731;BME280;49747;51.334;6.830;2022-12-18T14:26:20;101798.97;;;6.24;43.24
63731;BME280;49747;51.334;6.830;2022-12-18T14:28:48;101812.63;;;6.35;43.39
63731;BME280;49747;51.334;6.830;2022-12-18T14:31:18;101831.69;;;6.44;43.69
63731;BME280;49747;51.334;6.830;2022-12-18T14:33:46;101827.91;;;6.27;43.23
63731;BME280;49747;51.334;6.830;2022-12-18T14:36:18;101825.94;;;6.32;43.71
63731;BME280;49747;51.334;6.830;2022-12-18T14:38:51;101827.75;;;6.30;43.92
63731;BME280;49747;51.334;6.830;2022-12-18T14:41:20;101824.41;;;6.27;44.30
63731;BME280;49747;51.334;6.830;2022-12-18T14:43:53;101814.91;;;6.21;44.05
63731;BME280;49747;51.334;6.830;2022-12-18T14:49:04;101799.22;;;5.93;43.63
63731;BME280;49747;51.334;6.830;2022-12-18T14:51:33;101803.94;;;6.08;44.00
63731;BME280;49747;51.334;6.830;2022-12-18T14:54:05;101778.53;;;6.06;43.86